Time;durP1;ratioP1;P1;durP2;ratioP2;P2;SDS_P1;SDS_P2;PMS_P1;PMS_P2;Temp;Humidity;BMP_temperature;BMP_pressure;BME280_temperature;BME280_humidity;BME280_pressure;Samples;Min_cycle;Max_cycle;Signal;HPM_P1;HPM_P2
2022/07/23 00:02:17;;;;;;;9.60;8.35;;;;;;;-148.88;99.61;75720.34;5052485;28;20075;-85
2022/07/23 00:04:42;;;;;;;12.57;8.38;;;;;;;-148.88;99.71;75708.16;5052425;28;20028;-86
2022/07/23 00:07:07;;;;;;;12.52;8.05;;;;;;;-148.88;99.57;75708.16;5052501;28;20033;-86
2022/07/23 00:09:33;;;;;;;12.70;8.57;;;;;;;-148.88;99.86;75708.16;5052512;28;20074;-86
2022/07/23 00:11:58;;;;;;;20.02;8.70;;;;;;;-148.88;100.00;75724.41;5052576;28;20032;-86
2022/07/23 00:14:24;;;;;;;11.45;9.05;;;;;;;-148.88;100.00;75734.56;5052114;28;20155;-85
2022/07/23 00:16:49;;;;;;;10.88;8.63;;;;;;;-148.88;100.00;75732.53;5052266;28;20028;-85
2022/07/23 00:19:14;;;;;;;15.75;8.45;;;;;;;-148.88;99.86;75724.41;5052223;28;20368;-86
2022/07/23 00:21:40;;;;;;;11.07;8.43;;;;;;;-148.88;100.00;75732.53;5052415;28;20013;-86
2022/07/23 00:24:05;;;;;;;11.30;7.68;;;;;;;-148.88;99.16;75718.31;5052776;28;20128;-86
2022/07/23 00:26:31;;;;;;;10.57;8.10;;;;;;;-148.88;98.96;75720.34;5052828;28;20025;-85
2022/07/23 00:28:56;;;;;;;12.88;8.05;;;;;;;-148.88;99.20;75724.41;5052112;28;20027;-86
2022/07/23 00:31:21;;;;;;;10.73;7.72;;;;;;;-148.88;99.32;75722.38;5052185;28;20029;-85
2022/07/23 00:33:46;;;;;;;10.75;8.35;;;;;;;-148.88;99.49;75722.38;5052018;28;20395;-86
2022/07/23 00:36:12;;;;;;;11.48;7.30;;;;;;;-148.88;99.18;75724.41;5052143;28;20029;-86
2022/07/23 00:38:37;;;;;;;9.80;7.18;;;;;;;-148.88;98.43;75720.34;5052247;28;20487;-86
2022/07/23 00:41:02;;;;;;;9.18;7.25;;;;;;;-148.88;97.99;75724.41;5052016;28;20019;-86
2022/07/23 00:43:27;;;;;;;10.25;7.55;;;;;;;-148.88;97.97;75716.28;5052011;28;20027;-86
2022/07/23 00:45:53;;;;;;;9.77;7.80;;;;;;;-148.88;97.97;75722.38;5051937;28;20112;-86
2022/07/23 00:48:18;;;;;;;10.07;7.28;;;;;;;-148.88;99.07;75732.53;5051969;28;20514;-85
2022/07/23 00:50:44;;;;;;;11.23;7.38;;;;;;;-148.88;99.20;75730.50;5051689;28;20119;-85
2022/07/23 00:53:10;;;;;;;11.15;7.80;;;;;;;-148.88;98.50;75722.38;5051767;28;20029;-85
2022/07/23 00:55:35;;;;;;;10.95;7.00;;;;;;;-148.88;98.16;75724.41;5051752;28;20400;-86
2022/07/23 00:58:02;;;;;;;12.50;7.70;;;;;;;-148.88;98.27;75732.53;5051950;28;20020;-86
2022/07/23 01:00:28;;;;;;;15.52;8.35;;;;;;;-148.88;98.55;75736.59;5051718;28;20067;-86
2022/07/23 01:02:53;;;;;;;11.73;8.48;;;;;;;-148.88;98.61;75728.47;5051876;28;20025;-87
2022/07/23 01:05:21;;;;;;;11.48;7.88;;;;;;;-148.88;99.20;75742.69;5051753;28;20025;-86
2022/07/23 01:07:50;;;;;;;11.85;8.05;;;;;;;-148.88;98.74;75734.56;5055149;28;20027;-86
2022/07/23 01:10:31;;;;;;;12.57;9.02;;;;;;;-148.88;99.61;75728.47;5055746;28;20028;-87
2022/07/23 01:12:57;;;;;;;12.93;9.15;;;;;;;-148.88;99.25;75728.47;5055710;28;20116;-86
2022/07/23 01:15:23;;;;;;;10.57;9.05;;;;;;;-148.88;99.43;75726.44;5055642;28;20497;-86
2022/07/23 01:17:49;;;;;;;12.13;8.65;;;;;;;-148.88;99.50;75716.28;5055772;28;20096;-86
2022/07/23 01:20:14;;;;;;;11.73;8.50;;;;;;;-148.88;99.37;75716.28;5055427;28;20074;-87
2022/07/23 01:22:39;;;;;;;11.73;8.75;;;;;;;-148.88;100.00;75716.28;5055449;28;20029;-85
2022/07/23 01:25:05;;;;;;;11.10;9.35;;;;;;;-148.88;100.00;75718.31;5055399;28;20021;-86
2022/07/23 01:27:31;;;;;;;12.88;9.07;;;;;;;-148.88;99.96;75710.19;5056487;28;20040;-86
2022/07/23 01:29:59;;;;;;;12.45;9.45;;;;;;;-148.88;100.00;75712.22;5055304;28;20025;-86
2022/07/23 01:32:24;;;;;;;14.10;9.95;;;;;;;-148.88;100.00;75726.44;5054996;28;20025;-86
2022/07/23 01:34:50;;;;;;;13.32;9.93;;;;;;;-148.88;100.00;75724.41;5055348;28;20364;-86
2022/07/23 01:37:15;;;;;;;13.43;9.38;;;;;;;-148.88;100.00;75704.09;5055564;28;20024;-86
2022/07/23 01:39:40;;;;;;;12.95;9.55;;;;;;;-148.88;100.00;75708.16;5056662;28;20398;-86
2022/07/23 01:42:06;;;;;;;14.68;10.23;;;;;;;-148.88;100.00;75706.13;5054821;28;20037;-86
2022/07/23 01:44:31;;;;;;;14.65;9.82;;;;;;;-148.88;100.00;75712.22;5054896;28;20112;-86
2022/07/23 01:46:56;;;;;;;13.15;10.63;;;;;;;-148.88;100.00;75716.28;5056009;28;20043;-86
2022/07/23 01:49:22;;;;;;;13.07;10.65;;;;;;;-148.88;100.00;75704.09;5054847;28;20017;-87
2022/07/23 01:51:59;;;;;;;12.15;9.63;;;;;;;-148.88;100.00;75708.16;5054495;28;20081;-89
2022/07/23 01:54:26;;;;;;;14.30;10.65;;;;;;;-148.88;100.00;75691.91;5056288;28;20036;-89
2022/07/23 01:56:51;;;;;;;12.75;10.40;;;;;;;-148.88;100.00;75700.03;5056083;28;20060;-89
2022/07/23 01:59:16;;;;;;;14.13;10.30;;;;;;;-148.88;100.00;75712.22;5054634;28;20067;-88
2022/07/23 02:01:42;;;;;;;14.98;10.43;;;;;;;-148.88;100.00;75720.34;5054534;28;20029;-88
2022/07/23 02:04:07;;;;;;;13.15;9.73;;;;;;;-148.88;100.00;75714.25;5055799;28;20387;-87
2022/07/23 02:06:32;;;;;;;11.93;9.40;;;;;;;-148.88;100.00;75691.91;5055288;28;20033;-89
2022/07/23 02:08:58;;;;;;;16.00;10.05;;;;;;;-148.88;100.00;75691.91;5055600;28;20025;-89
2022/07/23 02:11:23;;;;;;;16.73;9.80;;;;;;;-148.88;100.00;75695.97;5054315;28;20475;-88
2022/07/23 02:13:48;;;;;;;15.77;9.93;;;;;;;-148.88;100.00;75700.03;5054490;28;20028;-89
2022/07/23 02:16:14;;;;;;;14.52;9.95;;;;;;;-148.88;100.00;75675.66;5055605;28;20025;-88
2022/07/23 02:18:39;;;;;;;18.63;11.75;;;;;;;-148.88;100.00;75671.59;5054078;28;20478;-89
2022/07/23 02:21:04;;;;;;;14.85;10.60;;;;;;;-148.88;100.00;75663.47;5055430;28;20024;-89
2022/07/23 02:23:29;;;;;;;13.02;10.85;;;;;;;-148.88;100.00;75665.50;5056031;28;20017;-88
2022/07/23 02:25:55;;;;;;;14.23;10.68;;;;;;;-148.88;100.00;75667.53;5055302;28;20098;-90
2022/07/23 02:28:20;;;;;;;16.58;10.82;;;;;;;-148.88;100.00;75681.75;5055288;28;20029;-88
2022/07/23 02:30:45;;;;;;;15.25;11.93;;;;;;;-148.88;100.00;75667.53;5055173;28;20525;-90
2022/07/23 02:33:11;;;;;;;14.00;10.60;;;;;;;-148.88;100.00;75673.63;5054070;28;20131;-90
2022/07/23 02:35:36;;;;;;;12.88;10.68;;;;;;;-148.88;100.00;75675.66;5054188;28;20028;-90
2022/07/23 02:38:01;;;;;;;14.10;11.02;;;;;;;-148.88;100.00;75704.09;5053868;28;20025;-89
2022/07/23 02:40:26;;;;;;;15.82;10.95;;;;;;;-148.88;100.00;75708.16;5053739;28;20068;-89
2022/07/23 02:42:52;;;;;;;14.02;10.73;;;;;;;-148.88;100.00;75700.03;5055075;28;20024;-89
2022/07/23 02:45:17;;;;;;;14.65;10.93;;;;;;;-148.88;100.00;75695.97;5055279;28;20495;-89
2022/07/23 02:47:42;;;;;;;15.93;11.43;;;;;;;-148.88;100.00;75704.09;5053727;28;20028;-90
2022/07/23 02:50:08;;;;;;;16.80;10.90;;;;;;;-148.88;100.00;75708.16;5053503;28;20546;-89
2022/07/23 02:52:33;;;;;;;22.08;10.65;;;;;;;-148.88;100.00;75695.97;5071162;22;20045;-77
2022/07/23 02:54:58;;;;;;;18.25;11.18;;;;;;;-148.88;100.00;75720.34;5055370;28;20025;-76
2022/07/23 02:57:24;;;;;;;18.75;11.77;;;;;;;-148.88;100.00;75708.16;5054941;28;20021;-76
2022/07/23 02:59:49;;;;;;;18.65;11.23;;;;;;;-148.88;100.00;75722.38;5054684;28;20029;-77
2022/07/23 03:02:14;;;;;;;15.20;12.18;;;;;;;-148.88;100.00;75720.34;5054724;28;20025;-76
2022/07/23 03:04:42;;;;;;;16.50;12.18;;;;;;;-148.88;100.00;75726.44;5054927;28;20027;-76
2022/07/23 03:07:07;;;;;;;18.30;12.30;;;;;;;-148.88;100.00;75724.41;5055394;28;20104;-77
2022/07/23 03:09:33;;;;;;;17.98;12.15;;;;;;;-148.88;100.00;75722.38;5053772;28;20056;-77
2022/07/23 03:11:58;;;;;;;17.25;12.23;;;;;;;-148.88;100.00;75730.50;5055620;28;20038;-77
2022/07/23 03:14:23;;;;;;;18.73;12.38;;;;;;;-148.88;100.00;75720.34;5055283;28;20053;-77
2022/07/23 03:16:49;;;;;;;15.93;12.45;;;;;;;-148.88;100.00;75724.41;5055720;28;20025;-77
2022/07/23 03:19:15;;;;;;;18.48;12.15;;;;;;;-148.88;100.00;75728.47;5054332;28;20028;-77
2022/07/23 03:21:40;;;;;;;19.10;13.20;;;;;;;-148.88;100.00;75724.41;5054318;28;20017;-77
2022/07/23 03:24:10;;;;;;;16.70;12.88;;;;;;;-148.88;100.00;75720.34;5055747;28;20024;-77
2022/07/23 03:26:36;;;;;;;19.08;13.73;;;;;;;-148.88;100.00;75724.41;5055348;28;20471;-76
2022/07/23 03:29:03;;;;;;;18.35;13.70;;;;;;;-148.88;100.00;75722.38;5054517;28;20032;-77
2022/07/23 03:31:30;;;;;;;18.55;13.38;;;;;;;-148.88;100.00;75712.22;5054233;28;20025;-76
2022/07/23 03:33:55;;;;;;;16.92;13.27;;;;;;;-148.88;100.00;75708.16;5052699;28;20120;-77
2022/07/23 03:36:20;;;;;;;17.77;12.68;;;;;;;-148.88;100.00;75712.22;5052714;28;20134;-77
2022/07/23 03:38:45;;;;;;;19.08;13.35;;;;;;;-148.88;100.00;75714.25;5054287;28;20028;-77
2022/07/23 03:41:11;;;;;;;18.63;13.38;;;;;;;-148.88;100.00;75724.41;5054619;28;20102;-77
2022/07/23 03:43:36;;;;;;;18.83;13.82;;;;;;;-148.88;100.00;75716.28;5054846;28;20029;-77
2022/07/23 03:46:01;;;;;;;19.92;12.95;;;;;;;-148.88;100.00;75712.22;5054739;28;20032;-77
2022/07/23 03:48:27;;;;;;;21.25;13.13;;;;;;;-148.88;100.00;75724.41;5055101;28;20021;-77
2022/07/23 03:50:52;;;;;;;17.00;12.30;;;;;;;-148.88;100.00;75726.44;5054518;28;20036;-77
2022/07/23 03:53:18;;;;;;;20.85;13.98;;;;;;;-148.88;100.00;75740.66;5054101;28;20032;-77
2022/07/23 03:55:43;;;;;;;20.85;14.02;;;;;;;-148.88;100.00;75742.69;5055329;28;20493;-77
2022/07/23 03:58:08;;;;;;;22.38;15.27;;;;;;;-148.88;100.00;75732.53;5054791;28;20025;-77
2022/07/23 04:00:33;;;;;;;18.88;13.57;;;;;;;-148.88;100.00;75724.41;5055272;28;20087;-77
2022/07/23 04:02:59;;;;;;;22.80;14.63;;;;;;;-148.88;100.00;75728.47;5055246;28;20108;-77
2022/07/23 04:05:24;;;;;;;19.48;14.02;;;;;;;-148.88;100.00;75718.31;5053423;28;20093;-77
2022/07/23 04:07:49;;;;;;;20.75;13.45;;;;;;;-148.88;100.00;75720.34;5055758;28;20378;-77
2022/07/23 04:10:15;;;;;;;20.10;13.82;;;;;;;-148.88;100.00;75726.44;5055599;28;20021;-77
2022/07/23 04:12:40;;;;;;;20.00;14.13;;;;;;;-148.88;100.00;75722.38;5054846;28;20037;-77
2022/07/23 04:15:07;;;;;;;17.25;13.75;;;;;;;-148.88;100.00;75726.44;5054470;28;20052;-77
2022/07/23 04:17:33;;;;;;;21.52;13.45;;;;;;;-148.88;100.00;75728.47;5053441;28;20048;-77
2022/07/23 04:19:58;;;;;;;21.70;13.27;;;;;;;-148.88;100.00;75748.78;5054512;28;20520;-77
2022/07/23 04:22:23;;;;;;;16.92;13.45;;;;;;;-148.88;100.00;75769.09;5055220;28;20025;-77
2022/07/23 04:24:50;;;;;;;17.45;13.25;;;;;;;-148.88;100.00;75763.00;5055158;28;20071;-77
2022/07/23 04:27:15;;;;;;;20.98;13.93;;;;;;;-148.88;100.00;75773.16;5054859;28;20494;-77
2022/07/23 04:29:40;;;;;;;19.60;13.90;;;;;;;-148.88;100.00;75771.13;5054649;28;20044;-77
2022/07/23 04:32:06;;;;;;;21.70;14.35;;;;;;;-148.88;100.00;75773.16;5055099;28;20102;-78
2022/07/23 04:34:31;;;;;;;19.40;14.75;;;;;;;-148.88;100.00;75769.09;5055349;28;20028;-77
2022/07/23 04:36:56;;;;;;;20.85;14.52;;;;;;;-148.88;100.00;75773.16;5054745;28;20155;-77
2022/07/23 04:39:22;;;;;;;21.55;14.50;;;;;;;-148.88;100.00;75771.13;5054251;28;20040;-77
2022/07/23 04:41:48;;;;;;;25.50;16.25;;;;;;;-148.88;100.00;75773.16;5055941;28;20053;-77
2022/07/23 04:44:13;;;;;;;24.02;14.95;;;;;;;-148.88;100.00;75773.16;5057559;28;20044;-77
2022/07/23 04:46:38;;;;;;;23.23;14.88;;;;;;;-148.88;100.00;75767.06;5058435;28;20033;-77
2022/07/23 04:49:04;;;;;;;20.70;15.73;;;;;;;-148.88;100.00;75760.97;5057314;28;20028;-77
2022/07/23 04:51:29;;;;;;;20.90;14.98;;;;;;;-148.88;100.00;75752.84;5056882;28;20024;-77
2022/07/23 04:53:55;;;;;;;23.45;15.05;;;;;;;-148.88;100.00;75752.84;5057264;28;20024;-77
2022/07/23 04:56:20;;;;;;;22.63;15.98;;;;;;;-148.88;100.00;75744.72;5058087;28;20025;-77
2022/07/23 04:58:45;;;;;;;20.70;14.15;;;;;;;-148.88;100.00;75742.69;5058003;28;20483;-77
2022/07/23 05:01:11;;;;;;;21.60;15.15;;;;;;;-148.88;100.00;75748.78;5057648;28;20028;-77
2022/07/23 05:03:36;;;;;;;20.25;14.63;;;;;;;-148.88;100.00;75752.84;5057332;28;20040;-77
2022/07/23 05:06:02;;;;;;;20.60;14.93;;;;;;;-148.88;100.00;75740.66;5057030;28;20108;-77
2022/07/23 05:08:28;;;;;;;20.52;14.40;;;;;;;-148.88;100.00;75740.66;5056979;28;20104;-77
2022/07/23 05:10:53;;;;;;;22.63;15.80;;;;;;;-148.88;100.00;75744.72;5056814;28;20435;-77
2022/07/23 05:13:18;;;;;;;24.50;15.60;;;;;;;-148.88;100.00;75734.56;5057094;28;20457;-77
2022/07/23 05:15:44;;;;;;;21.70;15.05;;;;;;;-148.88;100.00;75748.78;5057094;28;20083;-77
2022/07/23 05:18:10;;;;;;;22.52;14.60;;;;;;;-148.88;100.00;75744.72;5057039;28;20032;-76
2022/07/23 05:20:35;;;;;;;20.88;14.18;;;;;;;-148.88;100.00;75738.63;5056827;28;20409;-76
2022/07/23 05:23:00;;;;;;;18.67;14.13;;;;;;;-148.88;100.00;75734.56;5055315;28;20047;-76
2022/07/23 05:28:57;;;;;;;21.00;13.68;;;;;;;-148.88;100.00;75736.59;5056868;28;20075;-77
2022/07/23 05:31:22;;;;;;;21.90;14.18;;;;;;;-148.88;100.00;75736.59;5055105;28;20028;-77
2022/07/23 05:33:47;;;;;;;22.35;14.20;;;;;;;-148.88;100.00;75718.31;5055503;28;20032;-77
2022/07/23 05:36:13;;;;;;;20.67;14.35;;;;;;;-148.88;100.00;75724.41;5056596;28;20021;-77
2022/07/23 05:38:38;;;;;;;22.77;14.50;;;;;;;-148.88;100.00;75718.31;5056979;28;20103;-77
2022/07/23 05:41:03;;;;;;;19.80;14.57;;;;;;;-148.88;100.00;75704.09;5056759;28;20035;-77
2022/07/23 05:43:28;;;;;;;17.80;12.95;;;;;;;-148.88;100.00;75712.22;5056359;28;20424;-77
2022/07/23 05:45:54;;;;;;;22.80;14.02;;;;;;;-148.88;100.00;75710.19;5056351;28;20053;-77
2022/07/23 05:48:20;;;;;;;21.23;15.15;;;;;;;-148.88;100.00;75695.97;5056255;28;20040;-77
2022/07/23 05:50:46;;;;;;;23.77;14.13;;;;;;;-148.88;100.00;75691.91;5055906;28;20021;-77
2022/07/23 05:53:12;;;;;;;18.80;14.65;;;;;;;-148.88;100.00;75700.03;5056532;28;20049;-77
2022/07/23 05:55:37;;;;;;;20.13;14.40;;;;;;;-148.88;100.00;75691.91;5055213;28;20104;-77
2022/07/23 05:58:02;;;;;;;22.92;15.02;;;;;;;-148.88;100.00;75683.78;5056215;28;20198;-76
2022/07/23 06:00:28;;;;;;;23.77;15.05;;;;;;;-148.88;100.00;75675.66;5055857;28;20079;-76
2022/07/23 06:02:53;;;;;;;21.13;13.65;;;;;;;-148.88;100.00;75683.78;5055997;28;20111;-77
2022/07/23 06:05:19;;;;;;;22.75;14.48;;;;;;;-148.88;100.00;75673.63;5054543;28;20111;-77
2022/07/23 06:07:44;;;;;;;20.48;13.70;;;;;;;-148.88;100.00;75659.41;5055891;28;20021;-77
2022/07/23 06:10:10;;;;;;;21.17;13.35;;;;;;;-148.88;100.00;75675.66;5054529;28;20104;-77
2022/07/23 06:12:36;;;;;;;21.98;14.00;;;;;;;-148.88;100.00;75667.53;5055998;28;20398;-77
2022/07/23 06:15:02;;;;;;;20.63;12.88;;;;;;;-148.88;100.00;75659.41;5055780;28;20089;-77
2022/07/23 06:17:28;;;;;;;16.50;12.57;;;;;;;-148.88;100.00;75653.31;5055615;28;20489;-77
2022/07/23 06:19:53;;;;;;;18.52;12.77;;;;;;;-148.88;100.00;75639.09;5055834;28;20029;-78
2022/07/23 06:22:19;;;;;;;17.48;11.90;;;;;;;-148.88;100.00;75639.09;5054449;28;20025;-77
2022/07/23 06:24:44;;;;;;;17.73;11.90;;;;;;;-148.88;100.00;75641.13;5055733;28;20020;-77
2022/07/23 06:27:09;;;;;;;21.42;12.80;;;;;;;-148.88;100.00;75626.91;5054986;28;20398;-77
2022/07/23 06:29:35;;;;;;;18.95;13.25;;;;;;;-148.88;100.00;75614.72;5056059;28;20096;-77
2022/07/23 06:32:00;;;;;;;20.65;13.13;;;;;;;-148.88;100.00;75612.69;5056831;28;20040;-77
2022/07/23 06:34:25;;;;;;;15.82;11.50;;;;;;;-148.88;100.00;75614.72;5055473;28;20417;-77
2022/07/23 06:36:50;;;;;;;17.20;11.30;;;;;;;-148.88;100.00;75610.66;5055445;28;20021;-77
2022/07/23 06:39:16;;;;;;;11.90;9.20;;;;;;;-148.88;100.00;75608.63;5055081;28;20031;-76
2022/07/23 06:41:41;;;;;;;10.55;8.40;;;;;;;-148.88;100.00;75606.59;5055248;28;20378;-76
2022/07/23 06:44:07;;;;;;;11.98;7.95;;;;;;;-148.88;100.00;75596.44;5055400;28;20051;-76
2022/07/23 06:46:32;;;;;;;12.35;8.10;;;;;;;-148.88;98.69;75580.22;5055341;28;20099;-77
2022/07/23 06:48:57;;;;;;;12.02;7.82;;;;;;;-148.88;98.97;75578.19;5055549;28;20079;-77
2022/07/23 06:51:23;;;;;;;12.10;7.75;;;;;;;-148.88;98.81;75574.13;5055492;28;20398;-77
2022/07/23 06:53:48;;;;;;;10.05;6.80;;;;;;;-148.88;96.71;75580.22;5055956;28;20032;-77
2022/07/23 06:56:13;;;;;;;9.10;6.05;;;;;;;-148.88;95.91;75570.03;5056067;28;20028;-77
2022/07/23 06:58:38;;;;;;;8.73;5.70;;;;;;;-148.88;96.51;75555.84;5055835;28;20028;-76
2022/07/23 07:01:04;;;;;;;11.32;6.07;;;;;;;-148.88;95.13;75541.63;5055504;28;20025;-77
2022/07/23 07:03:29;;;;;;;13.38;5.90;;;;;;;-148.88;95.85;75537.56;5054901;28;20036;-77
2022/07/23 07:05:57;;;;;;;10.20;5.97;;;;;;;-148.88;95.67;75523.34;5054765;28;20024;-77
2022/07/23 07:08:22;;;;;;;11.65;5.43;;;;;;;-148.88;91.77;75535.53;5054788;28;20037;-77
2022/07/23 07:10:47;;;;;;;8.00;5.72;;;;;;;-148.88;91.87;75525.38;5054874;28;20031;-78
2022/07/23 07:13:13;;;;;;;8.50;5.63;;;;;;;-148.88;92.02;75515.22;5056020;28;20028;-77
2022/07/23 07:15:38;;;;;;;10.40;5.80;;;;;;;-148.88;90.92;75501.00;5055757;28;20021;-77
2022/07/23 07:18:04;;;;;;;10.55;6.70;;;;;;;-148.88;91.32;75507.09;5056210;28;20037;-77
2022/07/23 07:20:29;;;;;;;10.00;6.35;;;;;;;-148.88;92.50;75509.13;5055972;28;20017;-77
2022/07/23 07:22:54;;;;;;;10.57;6.53;;;;;;;-148.88;92.88;75482.72;5056294;28;20367;-77
2022/07/23 07:25:19;;;;;;;9.93;7.00;;;;;;;-148.88;90.80;75484.75;5056162;28;20021;-77
2022/07/23 07:27:45;;;;;;;9.38;6.32;;;;;;;-148.88;88.95;75466.47;5056214;28;20029;-77
2022/07/23 07:30:11;;;;;;;8.93;6.00;;;;;;;-148.88;90.03;75476.63;5054913;28;20053;-77
2022/07/23 07:32:36;;;;;;;8.80;6.18;;;;;;;-148.88;89.44;75476.63;5056205;28;20029;-77
2022/07/23 07:35:03;;;;;;;9.25;5.82;;;;;;;-148.88;90.14;75496.94;5055647;28;20032;-77
2022/07/23 07:37:29;;;;;;;10.18;6.07;;;;;;;-148.88;88.95;75496.94;5054313;28;20031;-77
2022/07/23 07:39:54;;;;;;;10.65;6.00;;;;;;;-148.88;87.63;75505.06;5055508;28;20029;-77
2022/07/23 07:42:20;;;;;;;7.63;5.32;;;;;;;-148.88;88.30;75505.06;5055743;28;20108;-77
2022/07/23 07:44:45;;;;;;;6.28;5.03;;;;;;;-148.88;89.57;75492.88;5055205;28;20108;-77
2022/07/23 07:47:10;;;;;;;7.72;5.65;;;;;;;-148.88;91.68;75494.91;5055735;28;20021;-77
2022/07/23 07:49:35;;;;;;;9.30;5.65;;;;;;;-148.88;89.53;75488.81;5055055;28;20109;-77
2022/07/23 07:52:01;;;;;;;9.68;5.70;;;;;;;-148.88;88.72;75425.84;5052953;28;20032;-77
2022/07/23 07:54:27;;;;;;;9.52;5.15;;;;;;;-148.88;87.74;75438.03;5054733;28;20056;-77
2022/07/23 07:56:52;;;;;;;9.73;5.22;;;;;;;-148.88;86.54;75452.25;5054737;28;20549;-77
2022/07/23 07:59:18;;;;;;;8.82;5.63;;;;;;;-148.88;87.74;75466.47;5053539;28;20025;-77
2022/07/23 08:01:43;;;;;;;10.20;5.80;;;;;;;-148.88;84.14;75474.59;5055120;28;20066;-77
2022/07/23 08:04:08;;;;;;;11.35;5.35;;;;;;;-148.88;85.57;75456.31;5053551;28;20040;-77
2022/07/23 08:06:33;;;;;;;7.65;5.30;;;;;;;-148.88;83.83;75462.41;5054580;28;20071;-77
2022/07/23 08:08:59;;;;;;;9.20;5.75;;;;;;;-148.88;87.13;75427.88;5054321;28;20025;-76
2022/07/23 08:11:24;;;;;;;10.75;6.22;;;;;;;-148.88;86.07;75448.19;5052908;28;20025;-76
2022/07/23 08:13:49;;;;;;;7.97;6.07;;;;;;;-148.88;86.06;75472.56;5054778;28;20044;-77
2022/07/23 08:16:14;;;;;;;10.30;5.88;;;;;;;-148.88;85.57;75460.38;5054384;28;20040;-76
2022/07/23 08:18:40;;;;;;;7.95;5.15;;;;;;;-148.88;84.99;75460.38;5054600;28;20077;-77
2022/07/23 08:21:05;;;;;;;8.38;5.65;;;;;;;-148.88;83.89;75456.31;5055963;28;20036;-77
2022/07/23 08:23:31;;;;;;;9.05;5.03;;;;;;;-148.88;81.34;75436.00;5055542;28;20052;-77
2022/07/23 08:25:57;;;;;;;7.53;5.18;;;;;;;-148.88;81.08;75403.50;5056087;28;20393;-77
2022/07/23 08:28:23;;;;;;;6.82;5.38;;;;;;;-148.88;79.64;75379.13;5055201;28;20041;-77
2022/07/23 08:30:48;;;;;;;7.88;5.28;;;;;;;-148.88;79.65;75366.94;5053079;28;20029;-77
2022/07/23 08:33:16;;;;;;;9.07;5.50;;;;;;;-148.88;79.19;75368.97;5053988;28;20024;-76
2022/07/23 08:35:47;;;;;;;8.13;5.43;;;;;;;-148.88;81.23;75354.75;5054252;28;20044;-77
2022/07/23 08:38:15;;;;;;;7.38;5.25;;;;;;;-148.88;83.28;75436.00;5053852;28;20095;-76
2022/07/23 08:40:43;;;;;;;8.40;5.20;;;;;;;-148.88;83.00;75442.09;5053825;28;20021;-76
2022/07/23 08:43:12;;;;;;;8.43;5.07;;;;;;;-148.88;81.94;75436.00;5052767;28;20482;-76
2022/07/23 08:45:42;;;;;;;10.30;5.13;;;;;;;-148.88;80.17;75415.69;5053957;28;20433;-76
2022/07/23 08:48:28;;;;;;;9.65;4.57;;;;;;;-148.88;79.89;75389.28;5054414;28;20033;-77
2022/07/23 08:53:27;;;;;;;6.47;4.67;;;;;;;-148.88;76.93;75334.44;5051098;28;20053;-84
2022/07/23 08:55:58;;;;;;;7.32;4.30;;;;;;;-148.88;76.99;75342.56;5068651;28;20040;-86
2022/07/23 08:58:25;;;;;;;6.55;3.78;;;;;;;-148.88;74.11;75324.28;5052024;28;20025;-85
2022/07/23 09:00:50;;;;;;;5.63;3.75;;;;;;;-148.88;74.07;75303.97;5068596;28;20028;-84
2022/07/23 09:03:19;;;;;;;7.70;4.20;;;;;;;-148.88;73.51;75293.81;5051829;28;20024;-84
2022/07/23 09:05:45;;;;;;;5.82;3.65;;;;;;;-148.88;72.67;75293.81;5051838;28;20017;-86
2022/07/23 09:08:19;;;;;;;6.32;3.58;;;;;;;-148.88;73.97;75314.13;5051619;28;20060;-83
2022/07/23 09:10:52;;;;;;;6.68;4.03;;;;;;;-148.88;73.37;75342.56;5051662;28;20028;-85
2022/07/23 09:13:30;;;;;;;6.00;4.15;;;;;;;-148.88;72.05;75362.88;5051611;28;20116;-84
2022/07/23 09:15:57;;;;;;;5.88;4.25;;;;;;;-148.88;72.30;75318.19;5052955;28;20442;-84
2022/07/23 09:18:30;;;;;;;8.40;4.75;;;;;;;-148.88;70.76;75293.81;5051674;28;20021;-84
2022/07/23 09:21:18;;;;;;;6.90;4.22;;;;;;;-148.88;70.92;75279.59;5051871;28;20477;-84
2022/07/23 09:23:54;;;;;;;6.72;3.45;;;;;;;-148.88;67.38;75261.34;5052341;28;20031;-84
2022/07/23 09:26:25;;;;;;;6.20;3.53;;;;;;;-148.88;66.42;75251.19;5051885;28;20549;-83
2022/07/23 09:28:56;;;;;;;4.95;3.25;;;;;;;-148.88;67.20;75210.56;5054887;28;20021;-84
2022/07/23 09:31:24;;;;;;;5.18;3.08;;;;;;;-148.88;65.21;75218.69;5055674;28;20021;-82
2022/07/23 09:33:49;;;;;;;6.40;3.35;;;;;;;-148.88;66.24;75261.34;5055428;28;20048;-85
2022/07/23 09:36:14;;;;;;;6.85;3.50;;;;;;;-148.88;67.12;75297.88;5055345;28;20480;-84
2022/07/23 09:38:50;;;;;;;7.35;3.40;;;;;;;-148.88;71.43;75324.28;5055280;28;20028;-84
2022/07/23 09:41:16;;;;;;;6.05;3.13;;;;;;;-148.88;68.93;75316.16;5055229;28;20023;-83
2022/07/23 09:43:42;;;;;;;6.88;3.28;;;;;;;-148.88;68.46;75303.97;5055207;28;20120;-84
2022/07/23 09:46:21;;;;;;;4.70;2.90;;;;;;;-148.88;64.60;75226.81;5054987;28;20035;-84
2022/07/23 09:48:47;;;;;;;5.28;3.30;;;;;;;-148.88;63.75;75200.41;5055003;28;20039;-85
2022/07/23 09:54:31;;;;;;;3.25;2.35;;;;;;;-148.88;60.83;75133.38;5043278;28;20055;-82
2022/07/23 09:56:59;;;;;;;4.75;2.15;;;;;;;-148.88;60.44;75111.03;5054876;28;20021;-84
2022/07/23 09:59:28;;;;;;;3.88;2.50;;;;;;;-148.88;61.29;75086.69;5055192;28;20053;-84
2022/07/23 10:01:59;;;;;;;6.05;3.10;;;;;;;-148.88;60.15;75082.63;5055613;28;20128;-84
2022/07/23 10:04:26;;;;;;;3.28;2.50;;;;;;;-148.88;63.13;75176.03;5055195;28;20035;-84
2022/07/23 10:06:58;;;;;;;4.30;2.38;;;;;;;-148.88;60.32;75171.97;5054758;28;20059;-85
2022/07/23 10:09:28;;;;;;;4.35;2.05;;;;;;;-148.88;62.80;75155.72;5056110;28;20494;-85
2022/07/23 10:11:59;;;;;;;5.25;3.03;;;;;;;-148.88;61.32;75137.44;5054687;28;20025;-85
2022/07/23 10:14:27;;;;;;;3.25;2.95;;;;;;;-148.88;61.37;75135.41;5054764;28;20021;-83
2022/07/23 10:16:52;;;;;;;4.57;2.33;;;;;;;-148.88;57.93;75086.69;5054795;28;20483;-85
2022/07/23 10:19:18;;;;;;;4.13;2.40;;;;;;;-148.88;57.15;75078.56;5054549;28;20036;-86
2022/07/23 10:21:48;;;;;;;4.07;2.17;;;;;;;-148.88;58.44;75023.72;5054469;28;20032;-84
2022/07/23 10:24:17;;;;;;;3.10;2.13;;;;;;;-148.88;58.42;75005.44;5054400;28;20017;-84
2022/07/23 10:27:09;;;;;;;4.03;2.35;;;;;;;-148.88;57.42;74997.31;5054350;28;20406;-84
2022/07/23 10:29:40;;;;;;;4.35;2.10;;;;;;;-148.88;60.51;74936.41;5054353;28;20111;-84
2022/07/23 10:32:26;;;;;;;4.80;2.35;;;;;;;-148.88;58.12;74940.47;5054139;28;20032;-85
2022/07/23 10:35:10;;;;;;;4.05;2.25;;;;;;;-148.88;56.85;74944.53;5055073;28;20036;-84
2022/07/23 10:37:41;;;;;;;3.08;2.17;;;;;;;-148.88;58.39;74964.81;5055598;28;20032;-84
2022/07/23 10:40:22;;;;;;;4.57;2.45;;;;;;;-148.88;60.51;75060.28;5052751;28;20036;-85
2022/07/23 10:42:51;;;;;;;4.53;2.20;;;;;;;-148.88;57.76;75013.56;5053962;28;20151;-84
2022/07/23 10:45:34;;;;;;;4.85;2.20;;;;;;;-148.88;53.37;74997.31;5054220;28;20040;-84
2022/07/23 10:48:17;;;;;;;3.47;2.07;;;;;;;-148.88;54.44;74928.28;5054861;28;20024;-85
2022/07/23 10:51:04;;;;;;;3.97;2.17;;;;;;;-148.88;55.33;74912.03;5055108;28;20278;-86
2022/07/23 10:53:49;;;;;;;3.42;1.73;;;;;;;-148.88;52.71;74879.53;5053806;28;20037;-83
2022/07/23 10:56:14;;;;;;;6.85;2.10;;;;;;;-148.88;55.69;74867.34;5053915;28;20021;-84
2022/07/23 10:58:49;;;;;;;4.10;2.53;;;;;;;-148.88;54.49;74867.34;5054255;28;20032;-85
2022/07/23 11:01:38;;;;;;;4.00;2.20;;;;;;;-148.88;51.79;74830.78;5053982;28;20021;-84
2022/07/23 11:04:07;;;;;;;6.13;1.80;;;;;;;-148.88;50.00;74857.19;5054246;28;20024;-84
2022/07/23 11:06:47;;;;;;;2.33;1.63;;;;;;;-148.88;50.92;74834.84;5055497;28;20471;-85
2022/07/23 11:09:39;;;;;;;3.00;1.90;;;;;;;-148.88;51.86;74857.19;5056347;28;20392;-85
2022/07/23 11:12:13;;;;;;;4.05;1.98;;;;;;;-148.88;51.07;74834.84;5053832;28;20021;-83
2022/07/23 11:15:13;;;;;;;5.18;1.88;;;;;;;-148.88;52.37;74834.84;5053642;28;20092;-85